createdAt,value
2019-04-04T00:01:53.601Z,4.50
2019-04-04T00:04:23.198Z,4.70
2019-04-04T00:06:52.817Z,4.70
2019-04-04T00:09:22.451Z,4.57
2019-04-04T00:11:52.077Z,4.63
2019-04-04T00:14:21.680Z,4.60
2019-04-04T00:16:51.275Z,3.97
2019-04-04T00:19:21.011Z,4.70
2019-04-04T00:21:50.653Z,4.50
2019-04-04T00:24:20.228Z,4.30
2019-04-04T00:26:49.905Z,4.33
2019-04-04T00:29:19.509Z,4.97
2019-04-04T00:31:49.789Z,4.27
2019-04-04T00:34:19.863Z,4.40
2019-04-04T00:36:50.499Z,4.50
2019-04-04T00:39:20.033Z,5.10
2019-04-04T00:41:49.613Z,5.00
2019-04-04T00:44:20.988Z,4.73
2019-04-04T00:46:50.652Z,4.87
2019-04-04T00:49:20.181Z,5.17
2019-04-04T00:51:49.802Z,5.23
2019-04-04T00:54:19.316Z,4.80
2019-04-04T00:56:49.326Z,5.00
2019-04-04T00:59:18.994Z,5.30
2019-04-04T01:01:48.529Z,5.30
2019-04-04T01:04:18.126Z,4.90
2019-04-04T01:06:47.637Z,5.40
2019-04-04T01:09:17.167Z,5.20
2019-04-04T01:11:46.730Z,5.33
2019-04-04T01:14:16.274Z,5.87
2019-04-04T01:16:45.853Z,5.60
2019-04-04T01:19:15.440Z,5.47
2019-04-04T01:21:45.007Z,5.70
2019-04-04T01:24:14.668Z,5.40
2019-04-04T01:26:44.242Z,5.93
2019-04-04T01:29:13.876Z,5.77
2019-04-04T01:31:44.096Z,5.80
2019-04-04T01:34:14.793Z,5.97
2019-04-04T01:36:44.425Z,6.27
2019-04-04T01:39:13.983Z,5.60
2019-04-04T01:41:43.543Z,5.63
2019-04-04T01:44:13.157Z,5.60
2019-04-04T01:46:44.023Z,6.70
2019-04-04T01:49:14.007Z,6.00
2019-04-04T01:51:43.581Z,5.93
2019-04-04T01:54:13.209Z,5.67
2019-04-04T01:56:42.837Z,5.93
2019-04-04T01:59:13.014Z,5.77
2019-04-04T02:01:42.619Z,5.67
2019-04-04T02:04:12.188Z,6.17
2019-04-04T02:06:41.825Z,6.77
2019-04-04T02:09:11.482Z,6.50
2019-04-04T02:11:41.043Z,5.67
2019-04-04T02:14:11.873Z,6.40
2019-04-04T02:16:42.117Z,5.80
2019-04-04T02:19:11.697Z,6.87
2019-04-04T02:21:41.390Z,5.77
2019-04-04T02:24:11.004Z,6.70
2019-04-04T02:26:40.580Z,6.70
2019-04-04T02:29:11.062Z,7.20
2019-04-04T02:31:45.200Z,6.03
2019-04-04T02:34:14.797Z,6.67
2019-04-04T02:36:48.661Z,5.53
2019-04-04T02:39:17.330Z,5.50
2019-04-04T02:41:48.477Z,5.87
2019-04-04T02:44:18.438Z,5.60
2019-04-04T02:46:48.100Z,6.10
2019-04-04T02:49:17.664Z,6.10
2019-04-04T02:51:47.265Z,6.33
2019-04-04T02:54:16.864Z,5.90
2019-04-04T02:56:46.409Z,6.13
2019-04-04T02:59:20.231Z,6.30
2019-04-04T03:01:47.335Z,6.20
2019-04-04T03:04:17.003Z,5.97
2019-04-04T03:06:46.732Z,6.23
2019-04-04T03:09:16.289Z,6.47
2019-04-04T03:11:46.068Z,6.67
2019-04-04T03:14:15.778Z,6.10
2019-04-04T03:16:45.355Z,5.83
2019-04-04T03:19:14.954Z,6.70
2019-04-04T03:21:44.559Z,6.47
2019-04-04T03:24:14.119Z,6.63
2019-04-04T03:26:43.764Z,7.57
2019-04-04T03:29:13.374Z,8.40
2019-04-04T03:31:42.971Z,8.73
2019-04-04T03:34:13.250Z,8.50
2019-04-04T03:36:42.915Z,9.63
2019-04-04T03:39:12.528Z,8.70
2019-04-04T03:41:42.091Z,8.53
2019-04-04T03:44:11.637Z,8.40
2019-04-04T03:46:41.214Z,7.60
2019-04-04T03:49:10.771Z,6.97
2019-04-04T03:51:40.416Z,7.83
2019-04-04T03:54:13.934Z,6.67
2019-04-04T03:56:43.495Z,6.60
2019-04-04T03:59:13.114Z,6.50
2019-04-04T04:01:45.397Z,7.17
2019-04-04T04:04:14.147Z,6.40
2019-04-04T04:06:43.735Z,7.53
2019-04-04T04:09:13.307Z,7.47
2019-04-04T04:11:42.940Z,7.33
2019-04-04T04:14:12.471Z,7.37
2019-04-04T04:16:42.082Z,7.80
2019-04-04T04:19:11.674Z,6.67
2019-04-04T04:21:43.374Z,6.87
2019-04-04T04:24:12.590Z,7.37
2019-04-04T04:26:42.338Z,7.67
2019-04-04T04:29:11.953Z,6.90
2019-04-04T04:31:41.530Z,6.70
2019-04-04T04:34:11.173Z,6.87
2019-04-04T04:36:40.726Z,7.33
2019-04-04T04:39:10.302Z,7.00
2019-04-04T04:41:39.891Z,6.50
2019-04-04T04:44:09.504Z,7.20
2019-04-04T04:46:39.118Z,7.13
2019-04-04T04:49:08.710Z,8.00
2019-04-04T04:51:38.249Z,7.53
2019-04-04T04:54:07.888Z,8.00
2019-04-04T04:56:37.481Z,7.87
2019-04-04T04:59:07.132Z,8.10
2019-04-04T05:01:36.683Z,7.47
2019-04-04T05:04:06.313Z,7.83
2019-04-04T05:06:36.386Z,7.47
2019-04-04T05:09:07.287Z,7.87
2019-04-04T05:11:36.931Z,7.10
2019-04-04T05:14:06.496Z,6.80
2019-04-04T05:16:37.940Z,7.43
2019-04-04T05:19:07.409Z,6.63
2019-04-04T05:21:37.036Z,8.40
2019-04-04T05:24:06.628Z,7.07
2019-04-04T05:26:38.509Z,6.60
2019-04-04T05:29:07.506Z,6.77
2019-04-04T05:31:37.168Z,7.00
2019-04-04T05:34:06.731Z,6.67
2019-04-04T05:36:37.017Z,7.23
2019-04-04T05:39:08.545Z,6.93
2019-04-04T05:41:38.125Z,6.10
2019-04-04T05:44:09.968Z,7.10
2019-04-04T05:46:39.046Z,6.97
2019-04-04T05:49:08.678Z,6.00
2019-04-04T05:51:38.305Z,6.53
2019-04-04T05:54:08.349Z,6.57
2019-04-04T05:56:38.113Z,6.23
2019-04-04T05:59:07.803Z,9.20
2019-04-04T06:01:37.421Z,6.60
2019-04-04T06:04:07.063Z,6.50
2019-04-04T06:06:36.624Z,7.03
2019-04-04T06:09:08.427Z,6.57
2019-04-04T06:11:38.108Z,6.97
2019-04-04T06:14:07.706Z,7.70
2019-04-04T06:16:37.284Z,7.57
2019-04-04T06:19:06.926Z,8.43
2019-04-04T06:21:36.550Z,7.00
2019-04-04T06:24:06.152Z,7.90
2019-04-04T06:26:36.078Z,7.87
2019-04-04T06:29:07.218Z,7.47
2019-04-04T06:31:36.864Z,7.37
2019-04-04T06:34:10.157Z,7.07
2019-04-04T06:36:37.775Z,6.77
2019-04-04T06:39:08.935Z,7.30
2019-04-04T06:41:38.610Z,6.77
2019-04-04T06:44:08.301Z,6.67
2019-04-04T06:46:37.914Z,7.10
2019-04-04T06:49:07.535Z,7.50
2019-04-04T06:51:37.137Z,5.97
2019-04-04T06:54:06.817Z,6.77
2019-04-04T06:56:36.428Z,6.80
2019-04-04T06:59:06.060Z,6.27
2019-04-04T07:01:35.667Z,6.47
2019-04-04T07:04:05.256Z,6.00
2019-04-04T07:06:34.823Z,7.60
2019-04-04T07:09:05.912Z,6.60
2019-04-04T07:11:35.881Z,6.53
2019-04-04T07:14:05.807Z,6.80
2019-04-04T07:16:36.934Z,6.13
2019-04-04T07:19:08.015Z,6.50
2019-04-04T07:21:37.989Z,6.43
2019-04-04T07:24:07.554Z,7.47
2019-04-04T07:26:37.149Z,6.47
2019-04-04T07:29:06.718Z,6.37
2019-04-04T07:31:38.315Z,6.63
2019-04-04T07:34:07.704Z,5.60
2019-04-04T07:36:37.282Z,6.33
2019-04-04T07:39:07.646Z,6.93
2019-04-04T07:41:40.060Z,6.13
2019-04-04T07:44:08.561Z,6.47
2019-04-04T07:46:40.932Z,6.73
2019-04-04T07:49:09.480Z,6.17
2019-04-04T07:51:39.124Z,6.07
2019-04-04T07:54:08.746Z,6.43
2019-04-04T07:56:38.318Z,6.40
2019-04-04T07:59:07.963Z,6.93
2019-04-04T08:01:50.251Z,6.40
2019-04-04T08:04:08.936Z,7.20
2019-04-04T08:06:38.579Z,7.03
2019-04-04T08:09:08.457Z,6.13
2019-04-04T08:11:38.113Z,7.43
2019-04-04T08:14:07.747Z,7.20
2019-04-04T08:16:37.366Z,6.87
2019-04-04T08:19:07.038Z,7.23
2019-04-04T08:21:36.616Z,7.23
2019-04-04T08:24:06.361Z,6.80
2019-04-04T08:26:35.954Z,6.47
2019-04-04T08:29:05.763Z,7.70
2019-04-04T08:31:35.441Z,6.43
2019-04-04T08:34:05.576Z,6.77
2019-04-04T08:36:36.436Z,7.13
2019-04-04T08:39:09.891Z,7.10
2019-04-04T08:41:39.515Z,6.70
2019-04-04T08:44:09.159Z,7.53
2019-04-04T08:46:38.761Z,7.17
2019-04-04T08:49:08.364Z,7.93
2019-04-04T08:51:38.025Z,7.90
2019-04-04T08:54:07.728Z,7.77
2019-04-04T08:56:37.320Z,7.17
2019-04-04T08:59:06.908Z,7.20
2019-04-04T09:01:36.522Z,6.47
2019-04-04T09:04:06.249Z,7.30
2019-04-04T09:06:35.843Z,6.60
2019-04-04T09:09:06.943Z,7.63
2019-04-04T09:11:36.591Z,7.00
2019-04-04T09:14:06.399Z,7.40
2019-04-04T09:16:35.993Z,7.27
2019-04-04T09:19:05.683Z,6.73
2019-04-04T09:21:35.287Z,6.67
2019-04-04T09:24:04.979Z,8.97
2019-04-04T09:26:34.680Z,9.37
2019-04-04T09:29:04.411Z,10.73
2019-04-04T09:31:34.060Z,11.73
2019-04-04T09:34:03.671Z,14.93
2019-04-04T09:36:33.387Z,8.90
2019-04-04T09:39:04.703Z,15.20
2019-04-04T09:41:34.339Z,15.90
2019-04-04T09:44:05.940Z,17.03
2019-04-04T09:46:35.312Z,9.23
2019-04-04T09:49:04.980Z,7.47
2019-04-04T09:51:34.563Z,6.80
2019-04-04T09:54:04.236Z,7.00
2019-04-04T09:56:33.839Z,7.07
2019-04-04T09:59:03.504Z,7.53
2019-04-04T10:01:33.164Z,7.60
2019-04-04T10:04:02.770Z,7.70
2019-04-04T10:06:32.372Z,7.57
2019-04-04T10:09:14.782Z,7.23
2019-04-04T10:11:33.307Z,7.77
2019-04-04T10:14:04.238Z,7.63
2019-04-04T10:16:34.038Z,8.10
2019-04-04T10:19:03.643Z,7.47
2019-04-04T10:21:33.288Z,8.23
2019-04-04T10:24:02.901Z,7.40
2019-04-04T10:26:32.559Z,6.93
2019-04-04T10:29:02.275Z,6.73
2019-04-04T10:31:31.896Z,8.67
2019-04-04T10:34:01.537Z,6.97
2019-04-04T10:36:31.135Z,6.50
2019-04-04T10:39:00.783Z,7.87
2019-04-04T10:41:30.390Z,7.30
2019-04-04T10:43:59.992Z,8.00
2019-04-04T10:46:29.654Z,7.17
2019-04-04T10:48:59.297Z,7.23
2019-04-04T10:51:28.955Z,7.80
2019-04-04T10:53:58.697Z,6.60
2019-04-04T10:56:28.320Z,6.13
2019-04-04T10:58:57.929Z,9.33
2019-04-04T11:01:27.575Z,7.23
2019-04-04T11:03:57.216Z,6.20
2019-04-04T11:06:26.988Z,6.97
2019-04-04T11:08:56.623Z,6.53
2019-04-04T11:11:26.260Z,6.07
2019-04-04T11:13:55.911Z,6.47
2019-04-04T11:16:30.290Z,6.73
2019-04-04T11:18:56.964Z,6.57
2019-04-04T11:21:26.697Z,6.17
2019-04-04T11:23:56.312Z,5.90
2019-04-04T11:26:26.068Z,6.17
2019-04-04T11:28:55.823Z,6.50
2019-04-04T11:31:25.442Z,5.40
2019-04-04T11:33:55.113Z,6.70
2019-04-04T11:36:24.743Z,6.40
2019-04-04T11:38:54.394Z,6.13
2019-04-04T11:41:24.061Z,5.90
2019-04-04T11:43:53.640Z,4.97
2019-04-04T11:46:23.270Z,5.77
2019-04-04T11:48:52.879Z,5.60
2019-04-04T11:51:22.505Z,6.13
2019-04-04T11:53:52.155Z,5.83
2019-04-04T11:56:21.811Z,6.00
2019-04-04T11:58:51.437Z,5.87
2019-04-04T12:01:21.688Z,5.60
2019-04-04T12:03:51.330Z,5.97
2019-04-04T12:06:20.980Z,5.77
2019-04-04T12:08:50.667Z,6.43
2019-04-04T12:11:22.652Z,5.97
2019-04-04T12:13:51.627Z,6.10
2019-04-04T12:16:21.312Z,6.13
2019-04-04T12:18:50.918Z,5.70
2019-04-04T12:21:20.635Z,6.23
2019-04-04T12:23:51.592Z,7.43
2019-04-04T12:26:21.443Z,6.30
2019-04-04T12:28:51.117Z,6.10
2019-04-04T12:31:20.751Z,5.53
2019-04-04T12:33:50.760Z,5.10
2019-04-04T12:36:24.718Z,4.90
2019-04-04T12:38:51.735Z,5.50
2019-04-04T12:41:21.469Z,5.40
2019-04-04T12:43:51.110Z,4.80
2019-04-04T12:46:20.738Z,5.17
2019-04-04T12:48:50.457Z,5.50
2019-04-04T12:51:20.071Z,5.60
2019-04-04T12:53:49.711Z,4.90
2019-04-04T12:56:19.341Z,5.23
2019-04-04T12:58:48.918Z,4.73
2019-04-04T13:01:21.181Z,5.80
2019-04-04T13:03:49.995Z,4.90
2019-04-04T13:06:19.584Z,5.00
2019-04-04T13:08:49.332Z,3.70
2019-04-04T13:11:18.950Z,3.83
2019-04-04T13:13:48.531Z,4.10
2019-04-04T13:16:18.169Z,4.27
2019-04-04T13:18:47.748Z,5.20
2019-04-04T13:21:17.318Z,4.17
2019-04-04T13:23:46.890Z,4.10
2019-04-04T13:26:16.535Z,3.87
2019-04-04T13:28:46.191Z,3.60
2019-04-04T13:31:15.823Z,4.13
2019-04-04T13:33:45.481Z,3.50
2019-04-04T13:36:15.133Z,3.50
2019-04-04T13:38:44.762Z,4.07
2019-04-04T13:41:21.780Z,3.40
2019-04-04T13:43:45.809Z,3.17
2019-04-04T13:46:15.416Z,3.50
2019-04-04T13:48:45.067Z,3.00
2019-04-04T13:51:14.702Z,2.87
2019-04-04T13:53:44.341Z,2.83
2019-04-04T13:56:13.999Z,2.90
2019-04-04T13:58:43.632Z,3.47
2019-04-04T14:01:13.308Z,3.57
2019-04-04T14:03:42.890Z,2.80
2019-04-04T14:06:12.561Z,3.30
2019-04-04T14:08:42.204Z,3.00
2019-04-04T14:11:13.334Z,3.23
2019-04-04T14:13:43.063Z,3.73
2019-04-04T14:16:12.708Z,3.60
2019-04-04T14:18:44.571Z,4.03
2019-04-04T14:21:13.822Z,3.30
2019-04-04T14:23:45.273Z,3.10
2019-04-04T14:26:14.800Z,3.77
2019-04-04T14:28:44.393Z,3.37
2019-04-04T14:31:14.026Z,3.70
2019-04-04T14:33:43.654Z,4.40
2019-04-04T14:36:13.262Z,3.73
2019-04-04T14:38:42.894Z,4.27
2019-04-04T14:41:12.536Z,4.13
2019-04-04T14:43:42.219Z,3.80
2019-04-04T14:46:11.815Z,3.57
2019-04-04T14:48:42.931Z,3.50
2019-04-04T14:51:12.681Z,3.80
2019-04-04T14:53:42.304Z,3.57
2019-04-04T14:56:11.918Z,3.63
2019-04-04T14:58:41.552Z,3.80
2019-04-04T15:01:11.250Z,3.20
2019-04-04T15:03:42.335Z,3.23
2019-04-04T15:06:12.063Z,3.87
2019-04-04T15:08:41.742Z,3.73
2019-04-04T15:11:23.567Z,3.60
2019-04-04T15:13:42.683Z,3.47
2019-04-04T15:16:21.907Z,3.93
2019-04-04T15:18:51.500Z,3.90
2019-04-04T15:21:21.161Z,4.33
2019-04-04T15:23:50.791Z,4.23
2019-04-04T15:26:20.394Z,3.80
2019-04-04T15:28:50.047Z,4.33
2019-04-04T15:31:19.673Z,4.10
2019-04-04T15:33:50.547Z,4.70
2019-04-04T15:36:20.244Z,4.50
2019-04-04T15:38:49.887Z,4.63
2019-04-04T15:41:19.568Z,4.33
2019-04-04T15:43:49.149Z,5.13
2019-04-04T15:46:18.770Z,4.30
2019-04-04T15:48:48.452Z,5.13
2019-04-04T15:51:18.162Z,4.70
2019-04-04T15:53:47.787Z,5.20
2019-04-04T15:56:17.387Z,5.50
2019-04-04T15:58:47.011Z,5.73
2019-04-04T16:01:16.623Z,5.43
2019-04-04T16:03:46.215Z,5.20
2019-04-04T16:06:15.954Z,5.33
2019-04-04T16:08:45.553Z,5.77
2019-04-04T16:11:15.200Z,6.17
2019-04-04T16:13:44.777Z,6.17
2019-04-04T16:16:14.341Z,6.33
2019-04-04T16:18:43.958Z,6.80
2019-04-04T16:21:13.555Z,6.03
2019-04-04T16:23:43.130Z,6.40
2019-04-04T16:26:12.757Z,6.57
2019-04-04T16:28:42.324Z,6.10
2019-04-04T16:31:11.893Z,5.93
2019-04-04T16:33:41.512Z,6.50
2019-04-04T16:36:11.099Z,6.30
2019-04-04T16:38:40.720Z,6.87
2019-04-04T16:41:10.313Z,6.30
2019-04-04T16:43:40.840Z,6.40
2019-04-04T16:46:10.467Z,5.90
2019-04-04T16:48:40.036Z,6.37
2019-04-04T16:51:09.603Z,5.97
2019-04-04T16:53:39.170Z,5.60
2019-04-04T16:56:08.765Z,5.20
2019-04-04T16:58:38.396Z,5.07
2019-04-04T17:01:07.985Z,4.77
2019-04-04T17:03:37.666Z,5.00
2019-04-04T17:06:07.277Z,5.67
2019-04-04T17:08:36.870Z,5.27
2019-04-04T17:11:06.499Z,5.27
2019-04-04T17:13:36.085Z,6.63
2019-04-04T17:16:06.425Z,6.37
2019-04-04T17:18:36.106Z,8.13
2019-04-04T17:21:05.841Z,7.83
2019-04-04T17:23:35.479Z,7.77
2019-04-04T17:26:05.166Z,7.77
2019-04-04T17:28:35.346Z,8.33
2019-04-04T17:31:07.091Z,7.47
2019-04-04T17:33:36.910Z,7.30
2019-04-04T17:36:06.655Z,7.90
2019-04-04T17:38:36.244Z,8.27
2019-04-04T17:41:06.116Z,8.03
2019-04-04T17:43:35.921Z,9.50
2019-04-04T17:46:05.775Z,8.77
2019-04-04T17:48:35.597Z,9.00
2019-04-04T17:51:05.476Z,8.87
2019-04-04T17:53:35.435Z,9.33
2019-04-04T17:56:05.747Z,9.70
2019-04-04T17:58:35.754Z,8.20
2019-04-04T18:01:06.861Z,7.93
2019-04-04T18:03:36.499Z,6.10
2019-04-04T18:06:06.218Z,6.97
2019-04-04T18:08:35.885Z,7.07
2019-04-04T18:11:05.792Z,7.23
2019-04-04T18:13:35.431Z,6.83
2019-04-04T18:16:05.203Z,6.73
2019-04-04T18:18:34.786Z,6.87
2019-04-04T18:21:04.468Z,7.20
2019-04-04T18:23:34.086Z,6.77
2019-04-04T18:26:03.688Z,7.37
2019-04-04T18:28:33.321Z,6.77
2019-04-04T18:31:02.949Z,7.23
2019-04-04T18:33:32.598Z,7.10
2019-04-04T18:36:02.338Z,7.90
2019-04-04T18:38:32.114Z,8.73
2019-04-04T18:41:01.753Z,8.33
2019-04-04T18:43:31.387Z,8.83
2019-04-04T18:46:01.035Z,7.90
2019-04-04T18:48:30.714Z,9.37
2019-04-04T18:51:00.301Z,9.17
2019-04-04T18:53:29.921Z,7.53
2019-04-04T18:55:59.593Z,7.30
2019-04-04T18:58:29.166Z,7.13
2019-04-04T19:00:58.756Z,6.77
2019-04-04T19:03:29.789Z,7.03
2019-04-04T19:05:59.727Z,6.90
2019-04-04T19:08:29.373Z,6.87
2019-04-04T19:10:58.957Z,7.27
2019-04-04T19:13:28.577Z,6.53
2019-04-04T19:15:58.236Z,7.60
2019-04-04T19:18:27.922Z,6.73
2019-04-04T19:20:57.548Z,6.50
2019-04-04T19:23:27.122Z,6.70
2019-04-04T19:25:56.905Z,6.40
2019-04-04T19:28:26.700Z,7.80
2019-04-04T19:30:58.562Z,7.87
2019-04-04T19:33:27.787Z,7.70
2019-04-04T19:35:57.496Z,8.13
2019-04-04T19:38:27.104Z,7.20
2019-04-04T19:40:56.722Z,7.50
2019-04-04T19:43:26.332Z,7.30
2019-04-04T19:45:55.953Z,7.77
2019-04-04T19:48:25.549Z,7.40
2019-04-04T19:50:55.222Z,8.03
2019-04-04T19:53:25.755Z,8.90
2019-04-04T19:55:55.359Z,9.37
2019-04-04T19:58:24.980Z,9.40
2019-04-04T20:00:55.142Z,9.17
2019-04-04T20:03:24.751Z,8.00
2019-04-04T20:05:54.443Z,8.40
2019-04-04T20:08:24.079Z,8.53
2019-04-04T20:10:53.695Z,9.27
2019-04-04T20:13:30.781Z,8.20
2019-04-04T20:15:54.591Z,9.57
2019-04-04T20:18:24.247Z,9.43
2019-04-04T20:20:53.849Z,8.23
2019-04-04T20:23:23.435Z,7.47
2019-04-04T20:25:53.057Z,6.63
2019-04-04T20:28:22.648Z,6.77
2019-04-04T20:30:52.236Z,5.63
2019-04-04T20:33:21.839Z,6.67
2019-04-04T20:35:51.450Z,7.37
2019-04-04T20:38:21.138Z,7.20
2019-04-04T20:40:50.741Z,7.23
2019-04-04T20:43:20.316Z,6.20
2019-04-04T20:45:49.930Z,7.63
2019-04-04T20:48:19.509Z,6.90
2019-04-04T20:50:49.217Z,6.77
2019-04-04T20:53:18.809Z,6.73
2019-04-04T20:55:48.391Z,6.90
2019-04-04T20:58:17.975Z,7.00
2019-04-04T21:00:47.559Z,7.60
2019-04-04T21:03:17.172Z,8.00
2019-04-04T21:05:46.820Z,7.17
2019-04-04T21:08:16.437Z,6.87
2019-04-04T21:10:46.047Z,7.57
2019-04-04T21:13:15.611Z,8.13
2019-04-04T21:15:45.280Z,7.30
2019-04-04T21:18:14.959Z,6.73
2019-04-04T21:20:44.513Z,7.60
2019-04-04T21:23:14.191Z,6.90
2019-04-04T21:25:43.785Z,7.10
2019-04-04T21:28:13.395Z,7.23
2019-04-04T21:30:43.075Z,6.80
2019-04-04T21:33:12.700Z,6.87
2019-04-04T21:35:42.347Z,7.30
2019-04-04T21:38:11.978Z,6.50
2019-04-04T21:40:41.635Z,6.73
2019-04-04T21:43:11.238Z,6.37
2019-04-04T21:45:40.857Z,6.30
2019-04-04T21:48:10.439Z,7.10
2019-04-04T21:50:40.055Z,6.23
2019-04-04T21:53:09.634Z,6.50
2019-04-04T21:55:39.237Z,7.00
2019-04-04T21:58:08.847Z,6.57
2019-04-04T22:00:43.124Z,6.60
2019-04-04T22:03:13.012Z,6.87
2019-04-04T22:05:42.745Z,6.20
2019-04-04T22:08:12.372Z,7.00
2019-04-04T22:10:41.980Z,6.20
2019-04-04T22:13:11.680Z,6.77
2019-04-04T22:15:41.371Z,6.30
2019-04-04T22:18:10.976Z,6.80
2019-04-04T22:20:40.555Z,6.00
2019-04-04T22:23:10.113Z,6.37
2019-04-04T22:25:39.751Z,6.40
2019-04-04T22:28:09.467Z,6.50
2019-04-04T22:30:39.040Z,6.30
2019-04-04T22:33:08.634Z,6.03
2019-04-04T22:35:38.210Z,6.70
2019-04-04T22:38:07.824Z,6.83
2019-04-04T22:40:37.458Z,5.90
2019-04-04T22:43:07.075Z,6.73
2019-04-04T22:45:36.694Z,7.03
2019-04-04T22:48:06.366Z,5.90
2019-04-04T22:50:35.994Z,6.30
2019-04-04T22:53:05.735Z,6.40
2019-04-04T22:55:35.405Z,6.50
2019-04-04T22:58:04.977Z,6.03
2019-04-04T23:00:34.615Z,6.10
2019-04-04T23:03:05.695Z,6.27
2019-04-04T23:05:35.484Z,6.37
2019-04-04T23:08:07.498Z,6.50
2019-04-04T23:10:36.630Z,6.63
2019-04-04T23:13:06.325Z,6.90
2019-04-04T23:15:35.900Z,7.60
2019-04-04T23:18:05.524Z,7.03
2019-04-04T23:20:35.155Z,6.53
2019-04-04T23:23:04.757Z,6.97
2019-04-04T23:25:34.332Z,6.60
2019-04-04T23:28:03.911Z,6.50
2019-04-04T23:30:33.531Z,6.63
2019-04-04T23:33:03.145Z,6.40
2019-04-04T23:35:32.714Z,6.40
2019-04-04T23:38:02.341Z,6.93
2019-04-04T23:40:31.895Z,6.40
2019-04-04T23:43:01.544Z,6.67
2019-04-04T23:45:31.133Z,6.73
2019-04-04T23:48:00.844Z,6.33
2019-04-04T23:50:30.454Z,6.00
2019-04-04T23:53:00.036Z,6.03
2019-04-04T23:55:29.642Z,6.70
2019-04-04T23:57:59.254Z,6.30
